createdAt,value
2022-12-29T00:02:02.697Z,72.08
2022-12-29T00:04:57.711Z,71.88
2022-12-29T00:07:52.708Z,71.91
2022-12-29T00:10:47.743Z,72.15
2022-12-29T00:13:55.689Z,72.28
2022-12-29T00:16:30.964Z,72.21
2022-12-29T00:19:39.689Z,72.27
2022-12-29T00:22:35.379Z,72.40
2022-12-29T00:25:42.703Z,72.54
2022-12-29T00:28:37.098Z,72.67
2022-12-29T00:31:44.755Z,72.96
2022-12-29T00:34:44.674Z,73.14
2022-12-29T00:37:59.155Z,73.28
2022-12-29T00:41:13.689Z,73.52
2022-12-29T00:44:14.695Z,73.81
2022-12-29T00:46:56.179Z,73.92
2022-12-29T00:49:43.698Z,73.67
2022-12-29T00:52:24.824Z,73.54
2022-12-29T00:55:12.702Z,73.66
2022-12-29T00:57:54.890Z,73.92
2022-12-29T01:00:50.985Z,73.89
2022-12-29T01:03:45.905Z,73.82
2022-12-29T01:06:42.723Z,73.77
2022-12-29T01:09:55.774Z,73.88
2022-12-29T01:12:52.678Z,73.97
2022-12-29T01:15:47.715Z,73.92
2022-12-29T01:18:35.669Z,73.90
2022-12-29T01:21:14.235Z,73.87
2022-12-29T01:24:09.748Z,73.65
2022-12-29T01:27:04.673Z,73.73
2022-12-29T01:29:59.694Z,73.88
2022-12-29T01:32:54.875Z,73.88
2022-12-29T01:35:43.791Z,73.94
2022-12-29T01:38:18.865Z,73.80
2022-12-29T01:41:13.693Z,73.72
2022-12-29T01:44:11.692Z,73.77
2022-12-29T01:46:59.663Z,73.68
2022-12-29T01:49:54.679Z,73.59
2022-12-29T01:52:51.658Z,73.59
2022-12-29T01:55:50.689Z,73.65
2022-12-29T01:58:49.699Z,73.69
2022-12-29T02:01:37.826Z,73.80
2022-12-29T02:04:12.848Z,73.76
2022-12-29T02:07:03.697Z,73.55
2022-12-29T02:09:38.824Z,73.41
2022-12-29T02:12:28.662Z,73.43
2022-12-29T02:15:13.674Z,73.43
2022-12-29T02:18:18.653Z,73.51
2022-12-29T02:21:40.675Z,73.55
2022-12-29T02:24:41.863Z,73.55
2022-12-29T02:27:55.687Z,73.80
2022-12-29T02:30:50.695Z,73.91
2022-12-29T02:34:27.668Z,74.00
2022-12-29T02:37:36.674Z,74.14
2022-12-29T02:40:56.674Z,74.00
2022-12-29T02:44:20.654Z,73.91
2022-12-29T02:47:23.672Z,73.84
2022-12-29T02:50:23.649Z,73.51
2022-12-29T02:53:47.681Z,73.34
2022-12-29T02:56:42.851Z,73.32
2022-12-29T02:59:38.876Z,73.08
2022-12-29T03:02:40.045Z,72.93
2022-12-29T03:05:48.671Z,72.67
2022-12-29T03:08:51.650Z,72.48
2022-12-29T03:12:11.690Z,72.36
2022-12-29T03:15:30.664Z,72.60
2022-12-29T03:18:30.678Z,72.70
2022-12-29T03:21:57.879Z,72.49
2022-12-29T03:24:56.673Z,72.31
2022-12-29T03:27:55.851Z,72.46
2022-12-29T03:30:51.704Z,72.59
2022-12-29T03:33:46.655Z,72.55
2022-12-29T03:36:45.640Z,72.44
2022-12-29T03:39:41.659Z,72.22
2022-12-29T03:42:31.652Z,71.90
2022-12-29T03:48:22.639Z,71.70
2022-12-29T03:51:04.872Z,71.75
2022-12-29T03:54:21.319Z,71.56
2022-12-29T03:57:16.643Z,71.40
2022-12-29T03:59:51.776Z,71.33
2022-12-29T04:02:39.938Z,71.38
2022-12-29T04:05:22.656Z,71.25
2022-12-29T04:08:10.671Z,71.15
2022-12-29T04:10:51.663Z,71.16
2022-12-29T04:13:48.658Z,71.16
2022-12-29T04:16:36.843Z,71.15
2022-12-29T04:19:18.640Z,71.19
2022-12-29T04:22:06.862Z,71.18
2022-12-29T04:24:50.660Z,71.17
2022-12-29T04:27:38.874Z,71.21
2022-12-29T04:30:21.662Z,71.13
2022-12-29T04:33:16.639Z,71.03
2022-12-29T04:36:07.669Z,71.02
2022-12-29T04:38:49.646Z,71.12
2022-12-29T04:41:44.648Z,71.16
2022-12-29T04:44:44.904Z,71.21
2022-12-29T04:47:40.634Z,71.20
2022-12-29T04:50:28.785Z,71.25
2022-12-29T04:53:03.818Z,71.09
2022-12-29T04:55:58.630Z,71.21
2022-12-29T04:58:53.643Z,71.24
2022-12-29T05:01:48.726Z,71.30
2022-12-29T05:04:43.644Z,71.34
2022-12-29T05:07:32.640Z,71.51
2022-12-29T05:10:07.799Z,71.80
2022-12-29T05:12:55.645Z,71.97
2022-12-29T05:15:30.746Z,72.01
2022-12-29T05:18:18.700Z,71.98
2022-12-29T05:20:54.771Z,71.78
2022-12-29T05:23:42.639Z,71.73
2022-12-29T05:26:24.648Z,71.82
2022-12-29T05:29:19.654Z,71.96
2022-12-29T05:32:14.727Z,72.13
2022-12-29T05:35:09.737Z,71.99
2022-12-29T05:38:04.737Z,72.06
2022-12-29T05:40:52.632Z,72.17
2022-12-29T05:43:27.802Z,72.37
2022-12-29T05:46:15.697Z,72.30
2022-12-29T05:48:57.738Z,72.35
2022-12-29T05:51:52.636Z,72.32
2022-12-29T05:54:47.657Z,72.35
2022-12-29T05:57:42.638Z,72.42
2022-12-29T06:00:30.609Z,72.37
2022-12-29T06:03:25.837Z,72.44
2022-12-29T06:06:20.632Z,72.38
2022-12-29T06:09:08.824Z,72.45
2022-12-29T06:12:03.723Z,72.66
2022-12-29T06:14:51.679Z,72.52
2022-12-29T06:17:26.797Z,72.57
2022-12-29T06:20:15.616Z,72.63
2022-12-29T06:22:56.734Z,72.56
2022-12-29T06:25:51.667Z,72.49
2022-12-29T06:28:46.633Z,72.59
2022-12-29T06:31:41.683Z,72.66
2022-12-29T06:34:29.623Z,72.67
2022-12-29T06:37:04.801Z,72.70
2022-12-29T06:39:52.603Z,72.74
2022-12-29T06:42:27.778Z,72.78
2022-12-29T06:45:16.643Z,72.82
2022-12-29T06:47:51.793Z,72.92
2022-12-29T06:50:39.628Z,72.96
2022-12-29T06:53:21.640Z,72.97
2022-12-29T06:56:16.623Z,73.08
2022-12-29T06:59:11.623Z,73.26
2022-12-29T07:01:59.760Z,73.12
2022-12-29T07:04:54.602Z,72.96
2022-12-29T07:07:42.639Z,72.75
2022-12-29T07:10:24.632Z,72.60
2022-12-29T07:13:19.624Z,72.46
2022-12-29T07:16:14.732Z,72.18
2022-12-29T07:19:10.600Z,71.78
2022-12-29T07:22:05.603Z,71.70
2022-12-29T07:25:00.615Z,72.04
2022-12-29T07:27:56.612Z,72.09
2022-12-29T07:30:51.612Z,72.13
2022-12-29T07:33:47.659Z,72.09
2022-12-29T07:36:42.635Z,72.15
2022-12-29T07:39:37.635Z,72.24
2022-12-29T07:42:25.605Z,72.27
2022-12-29T07:45:00.784Z,72.27
2022-12-29T07:47:48.611Z,72.17
2022-12-29T07:50:23.751Z,72.12
2022-12-29T07:53:11.658Z,71.98
2022-12-29T07:55:53.754Z,71.85
2022-12-29T07:58:41.616Z,71.71
2022-12-29T08:01:24.021Z,71.67
2022-12-29T08:04:18.667Z,71.50
2022-12-29T08:07:14.808Z,71.37
2022-12-29T08:10:09.727Z,71.36
2022-12-29T08:13:04.719Z,71.51
2022-12-29T08:15:59.634Z,71.41
2022-12-29T08:18:54.604Z,71.43
2022-12-29T08:21:49.563Z,71.63
2022-12-29T08:24:37.768Z,71.54
2022-12-29T08:27:21.071Z,71.58
2022-12-29T08:30:16.583Z,71.53
2022-12-29T08:33:04.622Z,71.51
2022-12-29T08:35:59.749Z,71.47
2022-12-29T08:38:54.761Z,71.35
2022-12-29T08:41:50.603Z,71.20
2022-12-29T08:44:45.606Z,71.13
2022-12-29T08:47:40.608Z,71.10
2022-12-29T08:50:35.642Z,70.89
2022-12-29T08:53:30.594Z,70.75
2022-12-29T08:56:25.813Z,70.62
2022-12-29T08:59:21.795Z,70.42
2022-12-29T09:02:23.676Z,69.87
2022-12-29T09:05:13.604Z,69.32
2022-12-29T09:07:48.899Z,68.77
2022-12-29T09:10:36.605Z,68.66
2022-12-29T09:13:18.741Z,68.61
2022-12-29T09:16:13.793Z,68.46
2022-12-29T09:19:08.602Z,68.29
2022-12-29T09:22:03.742Z,68.13
2022-12-29T09:24:58.748Z,67.80
2022-12-29T09:27:53.592Z,67.42
2022-12-29T09:30:48.612Z,66.99
2022-12-29T09:33:43.748Z,66.88
2022-12-29T09:36:38.851Z,66.75
2022-12-29T09:39:33.748Z,66.76
2022-12-29T09:42:36.819Z,66.92
2022-12-29T09:45:17.735Z,66.83
2022-12-29T09:48:24.535Z,66.74
2022-12-29T09:51:03.927Z,66.85
2022-12-29T09:54:05.587Z,66.55
2022-12-29T09:57:00.793Z,66.37
2022-12-29T09:59:50.589Z,65.96
2022-12-29T10:02:31.361Z,65.77
2022-12-29T10:05:31.620Z,66.10
2022-12-29T10:08:24.829Z,65.97
2022-12-29T10:11:28.605Z,65.56
2022-12-29T10:14:54.766Z,65.11
2022-12-29T10:18:08.570Z,64.79
2022-12-29T10:21:11.641Z,64.30
2022-12-29T10:24:07.729Z,63.83
2022-12-29T10:27:03.562Z,63.52
2022-12-29T10:30:09.719Z,63.42
2022-12-29T10:33:09.733Z,63.22
2022-12-29T10:35:58.587Z,63.12
2022-12-29T10:39:10.585Z,62.82
2022-12-29T10:42:09.589Z,62.77
2022-12-29T10:45:04.898Z,62.57
2022-12-29T10:47:54.368Z,62.26
2022-12-29T10:50:43.767Z,62.02
2022-12-29T10:53:38.563Z,61.99
2022-12-29T10:56:37.592Z,61.90
2022-12-29T10:59:28.565Z,61.95
2022-12-29T11:02:26.723Z,62.06
2022-12-29T11:05:51.574Z,61.97
2022-12-29T11:08:36.605Z,61.61
2022-12-29T11:11:38.573Z,61.36
2022-12-29T11:14:37.597Z,61.26
2022-12-29T11:17:25.565Z,60.90
2022-12-29T11:19:59.729Z,60.53
2022-12-29T11:22:51.581Z,60.39
2022-12-29T11:25:26.727Z,60.47
2022-12-29T11:28:23.572Z,60.49
2022-12-29T11:31:07.695Z,60.67
2022-12-29T11:33:55.540Z,60.74
2022-12-29T11:36:31.861Z,60.68
2022-12-29T11:39:38.762Z,60.18
2022-12-29T11:42:21.706Z,59.84
2022-12-29T11:45:28.741Z,59.48
2022-12-29T11:48:24.763Z,59.15
2022-12-29T11:51:13.571Z,59.56
2022-12-29T11:53:58.901Z,59.43
2022-12-29T11:56:49.571Z,58.67
2022-12-29T11:59:45.730Z,58.09
2022-12-29T12:02:56.785Z,57.58
2022-12-29T12:06:04.596Z,57.28
2022-12-29T12:09:17.736Z,56.58
2022-12-29T12:12:14.580Z,56.33
2022-12-29T12:15:11.591Z,56.24
2022-12-29T12:18:29.549Z,55.68
2022-12-29T12:21:53.759Z,55.68
2022-12-29T12:24:54.569Z,55.40
2022-12-29T12:27:56.767Z,55.28
2022-12-29T12:30:55.614Z,55.43
2022-12-29T12:33:47.693Z,55.27
2022-12-29T12:36:51.748Z,54.89
2022-12-29T12:40:18.580Z,54.80
2022-12-29T12:43:03.623Z,55.05
2022-12-29T12:46:28.681Z,55.16
2022-12-29T12:50:17.576Z,55.21
2022-12-29T12:53:37.558Z,55.21
2022-12-29T12:56:43.554Z,55.38
2022-12-29T12:59:44.581Z,55.46
2022-12-29T13:02:48.706Z,55.47
2022-12-29T13:05:53.563Z,55.30
2022-12-29T13:08:54.563Z,55.62
2022-12-29T13:12:15.568Z,56.33
2022-12-29T13:15:39.615Z,57.02
2022-12-29T13:18:39.576Z,57.51
2022-12-29T13:21:26.729Z,57.69
2022-12-29T13:24:31.594Z,58.17
2022-12-29T13:27:37.081Z,58.61
2022-12-29T13:30:30.711Z,59.09
2022-12-29T13:33:22.030Z,59.47
2022-12-29T13:36:05.818Z,59.70
2022-12-29T13:38:57.568Z,60.05
2022-12-29T13:41:37.692Z,59.97
2022-12-29T13:44:47.572Z,59.86
2022-12-29T13:47:44.556Z,59.82
2022-12-29T13:50:41.605Z,60.10
2022-12-29T13:53:50.544Z,60.35
2022-12-29T13:56:49.597Z,60.60
2022-12-29T13:59:23.733Z,60.74
2022-12-29T14:02:23.672Z,60.72
2022-12-29T14:05:14.567Z,60.29
2022-12-29T14:08:14.548Z,60.19
2022-12-29T14:11:02.776Z,60.10
2022-12-29T14:13:37.809Z,60.31
2022-12-29T14:16:50.727Z,60.73
2022-12-29T14:19:53.555Z,61.21
2022-12-29T14:22:41.568Z,61.48
2022-12-29T14:26:01.741Z,61.65
2022-12-29T14:28:58.604Z,62.07
2022-12-29T14:31:48.579Z,62.74
2022-12-29T14:34:53.637Z,63.05
2022-12-29T14:37:49.575Z,63.35
2022-12-29T14:40:44.552Z,63.47
2022-12-29T14:43:40.546Z,63.68
2022-12-29T14:46:38.566Z,64.02
2022-12-29T14:49:43.567Z,64.47
2022-12-29T14:52:33.558Z,64.41
2022-12-29T14:55:32.756Z,64.32
2022-12-29T14:58:33.544Z,64.68
2022-12-29T15:01:33.700Z,65.10
2022-12-29T15:04:41.739Z,65.42
2022-12-29T15:07:36.563Z,65.65
2022-12-29T15:10:33.765Z,65.77
2022-12-29T15:13:47.722Z,65.70
2022-12-29T15:16:49.621Z,65.67
2022-12-29T15:19:37.553Z,65.73
2022-12-29T15:22:12.863Z,65.80
2022-12-29T15:25:02.644Z,65.54
2022-12-29T15:27:37.686Z,65.31
2022-12-29T15:30:25.550Z,65.13
2022-12-29T15:33:07.531Z,64.90
2022-12-29T15:36:06.551Z,64.52
2022-12-29T15:38:55.670Z,64.80
2022-12-29T15:42:41.756Z,64.99
2022-12-29T15:45:41.658Z,65.41
2022-12-29T15:48:31.537Z,65.87
2022-12-29T15:51:13.539Z,65.95
2022-12-29T15:54:09.556Z,66.05
2022-12-29T15:56:58.560Z,65.79
2022-12-29T15:59:41.821Z,65.71
2022-12-29T16:02:38.746Z,65.82
2022-12-29T16:05:39.933Z,66.03
2022-12-29T16:08:47.816Z,66.26
2022-12-29T16:11:49.541Z,66.44
2022-12-29T16:14:52.542Z,66.68
2022-12-29T16:17:54.620Z,66.90
2022-12-29T16:20:54.560Z,66.92
2022-12-29T16:23:51.677Z,67.00
2022-12-29T16:26:39.564Z,67.12
2022-12-29T16:29:14.672Z,67.27
2022-12-29T16:32:11.449Z,67.28
2022-12-29T16:35:25.554Z,67.39
2022-12-29T16:38:36.532Z,67.37
2022-12-29T16:41:39.552Z,67.63
2022-12-29T16:44:24.791Z,67.90
2022-12-29T16:47:27.548Z,68.11
2022-12-29T16:50:28.067Z,68.42
2022-12-29T16:53:41.561Z,68.77
2022-12-29T16:56:38.535Z,68.97
2022-12-29T16:59:52.667Z,69.36
2022-12-29T17:02:52.641Z,69.60
2022-12-29T17:05:57.755Z,69.72
2022-12-29T17:08:56.523Z,69.77
2022-12-29T17:12:10.742Z,69.65
2022-12-29T17:15:10.738Z,69.47
2022-12-29T17:18:11.806Z,69.59
2022-12-29T17:21:08.534Z,69.49
2022-12-29T17:23:56.730Z,69.45
2022-12-29T17:26:31.703Z,69.51
2022-12-29T17:29:43.812Z,69.65
2022-12-29T17:32:39.540Z,69.62
2022-12-29T17:35:29.728Z,69.93
2022-12-29T17:38:04.815Z,70.10
2022-12-29T17:40:52.559Z,70.36
2022-12-29T17:43:37.103Z,70.60
2022-12-29T17:46:32.578Z,70.62
2022-12-29T17:49:30.876Z,70.46
2022-12-29T17:52:27.543Z,70.62
2022-12-29T17:55:37.220Z,70.55
2022-12-29T17:58:36.972Z,70.47
2022-12-29T18:01:37.289Z,70.36
2022-12-29T18:04:27.545Z,70.29
2022-12-29T18:07:02.720Z,70.30
2022-12-29T18:09:50.505Z,70.32
2022-12-29T18:12:46.548Z,70.17
2022-12-29T18:15:43.557Z,70.17
2022-12-29T18:18:42.771Z,70.08
2022-12-29T18:21:24.809Z,70.05
2022-12-29T18:24:12.551Z,69.96
2022-12-29T18:26:46.930Z,69.86
2022-12-29T18:29:35.540Z,69.72
2022-12-29T18:32:31.521Z,69.73
2022-12-29T18:35:34.918Z,69.90
2022-12-29T18:38:23.526Z,69.97
2022-12-29T18:40:58.693Z,70.28
2022-12-29T18:43:46.528Z,70.49
2022-12-29T18:46:23.540Z,70.67
2022-12-29T18:49:11.506Z,70.94
2022-12-29T18:51:47.222Z,71.06
2022-12-29T18:54:38.515Z,71.16
2022-12-29T18:57:13.658Z,71.05
2022-12-29T19:00:01.512Z,71.24
2022-12-29T19:02:36.644Z,71.22
2022-12-29T19:05:33.734Z,71.03
2022-12-29T19:08:15.512Z,70.78
2022-12-29T19:11:10.805Z,70.83
2022-12-29T19:14:06.808Z,70.87
2022-12-29T19:17:01.536Z,71.10
2022-12-29T19:19:57.523Z,71.13
2022-12-29T19:22:45.640Z,71.17
2022-12-29T19:25:25.853Z,71.10
2022-12-29T19:28:14.513Z,71.06
2022-12-29T19:31:14.739Z,71.05
2022-12-29T19:34:02.713Z,71.18
2022-12-29T19:36:39.697Z,71.24
2022-12-29T19:39:28.623Z,71.19
2022-12-29T19:42:06.084Z,71.24
2022-12-29T19:45:00.726Z,71.39
2022-12-29T19:47:57.597Z,71.41
2022-12-29T19:50:52.677Z,71.43
2022-12-29T19:53:47.520Z,71.50
2022-12-29T19:56:39.529Z,71.41
2022-12-29T19:59:21.527Z,71.63
2022-12-29T20:02:17.733Z,71.83
2022-12-29T20:05:15.939Z,71.90
2022-12-29T20:08:12.902Z,71.80
2022-12-29T20:11:22.710Z,71.67
2022-12-29T20:14:28.873Z,71.55
2022-12-29T20:17:32.653Z,71.38
2022-12-29T20:20:14.640Z,71.21
2022-12-29T20:23:10.874Z,71.02
2022-12-29T20:26:03.612Z,71.21
2022-12-29T20:28:38.717Z,71.38
2022-12-29T20:31:39.683Z,71.48
2022-12-29T20:34:34.964Z,71.55
2022-12-29T20:37:22.492Z,71.73
2022-12-29T20:39:58.700Z,71.77
2022-12-29T20:42:46.497Z,71.92
2022-12-29T20:45:26.956Z,72.34
2022-12-29T20:48:15.499Z,72.42
2022-12-29T20:51:11.510Z,72.37
2022-12-29T20:54:08.538Z,72.28
2022-12-29T20:57:03.509Z,72.09
2022-12-29T20:59:58.530Z,72.19
2022-12-29T21:02:48.755Z,72.29
2022-12-29T21:05:24.815Z,72.26
2022-12-29T21:08:13.502Z,72.20
2022-12-29T21:10:55.513Z,72.11
2022-12-29T21:13:51.509Z,72.27
2022-12-29T21:16:46.533Z,72.29
2022-12-29T21:19:41.531Z,72.07
2022-12-29T21:22:36.699Z,71.69
2022-12-29T21:25:24.692Z,71.58
2022-12-29T21:27:59.820Z,71.59
2022-12-29T21:30:58.523Z,71.51
2022-12-29T21:33:53.533Z,71.53
2022-12-29T21:36:48.490Z,71.85
2022-12-29T21:39:43.523Z,71.99
2022-12-29T21:42:38.488Z,72.19
2022-12-29T21:45:33.500Z,72.30
2022-12-29T21:48:35.485Z,72.30
2022-12-29T21:51:37.084Z,72.39
2022-12-29T21:54:44.502Z,72.41
2022-12-29T21:57:46.489Z,72.45
2022-12-29T22:00:59.719Z,72.79
2022-12-29T22:04:13.678Z,73.03
2022-12-29T22:07:27.529Z,73.22
2022-12-29T22:10:34.476Z,73.48
2022-12-29T22:13:09.607Z,73.59
2022-12-29T22:15:57.756Z,73.95
2022-12-29T22:18:32.854Z,74.34
2022-12-29T22:21:21.247Z,74.76
2022-12-29T22:24:16.685Z,75.06
2022-12-29T22:27:11.677Z,74.95
2022-12-29T22:30:06.565Z,74.76
2022-12-29T22:33:01.476Z,74.62
2022-12-29T22:35:57.895Z,74.51
2022-12-29T22:38:52.516Z,74.54
2022-12-29T22:41:40.475Z,74.74
2022-12-29T22:44:28.683Z,75.04
2022-12-29T22:47:03.838Z,75.06
2022-12-29T22:49:53.088Z,75.04
2022-12-29T22:53:00.503Z,75.08
2022-12-29T22:55:55.467Z,74.99
2022-12-29T22:58:59.781Z,74.89
2022-12-29T23:01:57.574Z,74.82
2022-12-29T23:05:02.838Z,74.79
2022-12-29T23:07:41.304Z,74.72
2022-12-29T23:10:31.826Z,74.55
2022-12-29T23:13:13.764Z,74.35
2022-12-29T23:16:08.723Z,74.39
2022-12-29T23:19:06.694Z,74.32
2022-12-29T23:22:04.720Z,74.40
2022-12-29T23:25:00.470Z,74.32
2022-12-29T23:27:55.459Z,74.38
2022-12-29T23:30:50.500Z,74.43
2022-12-29T23:33:45.459Z,74.56
2022-12-29T23:36:33.474Z,74.57
2022-12-29T23:39:33.471Z,74.58
2022-12-29T23:42:28.691Z,74.78
2022-12-29T23:45:25.470Z,74.72
2022-12-29T23:48:20.519Z,74.77
2022-12-29T23:51:15.470Z,74.84
2022-12-29T23:54:03.466Z,74.93
2022-12-29T23:56:40.618Z,74.99
2022-12-29T23:59:28.671Z,75.01
